Terminal Aerodrome Forecast
Issued by NWS Wichita, KS

Home | Current Version | Previous Version | Text Only | Print | Product List | Glossary On
Versions: 1 2 3 4 5 6 7 8 9 10 11 12 13 14 15 16 17 18 19 20 21 22 23 24 25 26
000
FTUS43 KICT 231726
TAFICT
TAF
KICT 231726Z 2318/2418 04006KT P6SM OVC009
     FM240300 06008KT 3SM -DZ OVC004
     FM241600 15007KT 6SM -DZ OVC004=

USA.gov is the U.S. government's official web portal to all federal, state and local government web resources and services.